Time;durP1;ratioP1;P1;durP2;ratioP2;P2;SDS_P1;SDS_P2;PMS_P1;PMS_P2;Temp;Humidity;BMP_temperature;BMP_pressure;BME280_temperature;BME280_humidity;BME280_pressure;Samples;Min_cycle;Max_cycle;Signal;HPM_P1;HPM_P2
2022/04/16 00:01:42;;;;;;;16.55;10.93;;;8.00;99.90;;;;;;4974435;28;20047;-83
2022/04/16 00:04:09;;;;;;;19.08;10.93;;;8.30;99.90;;;;;;4974011;28;20145;-85
2022/04/16 00:06:35;;;;;;;19.08;11.80;;;8.00;99.90;;;;;;4974203;28;20058;-84
2022/04/16 00:09:02;;;;;;;19.27;12.40;;;8.00;99.90;;;;;;4954560;28;20135;-86
2022/04/16 00:11:28;;;;;;;19.25;12.13;;;8.00;99.90;;;;;;4974519;28;20082;-85
2022/04/16 00:13:54;;;;;;;20.02;12.63;;;8.00;99.90;;;;;;4977048;28;20093;-81
2022/04/16 00:16:20;;;;;;;19.05;13.10;;;8.00;99.90;;;;;;4983213;28;20039;-79
2022/04/16 00:18:48;;;;;;;21.30;13.13;;;8.00;99.90;;;;;;4984838;28;20089;-83
2022/04/16 00:21:13;;;;;;;21.65;13.48;;;7.90;99.90;;;;;;4984984;28;20093;-81
2022/04/16 00:23:41;;;;;;;20.13;13.90;;;8.30;99.90;;;;;;4975359;28;20093;-83
2022/04/16 00:26:07;;;;;;;20.00;14.13;;;7.90;99.90;;;;;;4955261;28;20051;-81
2022/04/16 00:28:35;;;;;;;22.98;14.35;;;8.00;99.90;;;;;;4974419;28;20101;-83
2022/04/16 00:31:01;;;;;;;19.77;13.77;;;8.00;99.90;;;;;;4953702;28;20059;-84
2022/04/16 00:33:27;;;;;;;21.40;15.25;;;7.90;99.90;;;;;;4973857;28;20058;-83
2022/04/16 00:35:53;;;;;;;25.05;14.77;;;7.90;99.90;;;;;;4972179;28;20046;-81
2022/04/16 00:38:18;;;;;;;24.05;14.50;;;7.90;99.90;;;;;;4956391;28;20150;-86
2022/04/16 00:40:44;;;;;;;25.85;16.02;;;7.80;99.90;;;;;;4953354;29;20528;-83
2022/04/16 00:43:29;;;;;;;22.85;14.63;;;7.80;99.90;;;;;;4972077;28;20403;-85
2022/04/16 00:45:56;;;;;;;21.33;14.45;;;7.80;99.90;;;;;;4973098;28;20191;-84
2022/04/16 00:48:22;;;;;;;20.45;14.10;;;7.80;99.90;;;;;;4973406;28;20174;-80
2022/04/16 00:50:50;;;;;;;23.60;14.50;;;7.70;99.90;;;;;;4973634;28;20050;-84
2022/04/16 00:53:17;;;;;;;24.15;15.40;;;7.70;99.90;;;;;;4973387;28;20051;-84
2022/04/16 00:55:43;;;;;;;23.67;15.23;;;7.70;99.90;;;;;;4973601;28;20047;-84
2022/04/16 00:58:09;;;;;;;24.00;14.95;;;7.80;99.90;;;;;;4954151;28;20612;-84
2022/04/16 01:00:35;;;;;;;26.73;15.80;;;7.60;99.90;;;;;;4973249;28;20074;-84
2022/04/16 01:03:01;;;;;;;22.90;14.70;;;7.50;99.90;;;;;;4972918;28;20383;-83
2022/04/16 01:05:26;;;;;;;25.73;14.90;;;7.50;99.90;;;;;;4973089;28;20223;-85
2022/04/16 01:07:57;;;;;;;22.90;15.80;;;7.40;99.90;;;;;;4973337;28;20058;-85
2022/04/16 01:10:26;;;;;;;23.08;14.73;;;7.40;99.90;;;;;;4952771;29;20755;-82
2022/04/16 01:12:53;;;;;;;23.45;15.20;;;7.30;99.90;;;;;;4952980;29;20087;-84
2022/04/16 01:15:20;;;;;;;24.80;15.93;;;7.30;99.90;;;;;;4972654;28;20046;-83
2022/04/16 01:17:47;;;;;;;25.08;15.68;;;7.30;99.90;;;;;;4972797;28;20065;-82
2022/04/16 01:20:14;;;;;;;23.98;15.95;;;7.40;99.90;;;;;;4973245;28;20383;-83
2022/04/16 01:22:40;;;;;;;25.55;15.50;;;7.20;99.90;;;;;;4952614;29;20149;-83
2022/04/16 01:25:07;;;;;;;23.17;15.25;;;7.20;99.90;;;;;;4970961;28;20536;-84
2022/04/16 01:27:35;;;;;;;21.92;15.80;;;7.10;99.90;;;;;;4972906;28;20094;-83
2022/04/16 01:30:03;;;;;;;24.40;15.57;;;7.00;99.90;;;;;;4953141;28;20402;-86
2022/04/16 01:32:29;;;;;;;23.95;15.80;;;7.00;99.90;;;;;;4972112;28;20065;-81
2022/04/16 01:34:55;;;;;;;23.90;15.45;;;7.00;99.90;;;;;;4972698;28;20049;-84
2022/04/16 01:37:23;;;;;;;27.77;16.40;;;6.90;99.90;;;;;;4972694;28;20063;-81
2022/04/16 01:39:49;;;;;;;22.80;14.98;;;6.90;99.90;;;;;;4972955;28;20047;-83
2022/04/16 01:42:14;;;;;;;23.25;14.52;;;6.90;99.90;;;;;;4972744;28;20105;-85
2022/04/16 01:44:42;;;;;;;26.77;14.60;;;6.90;99.90;;;;;;4972287;28;20129;-85
2022/04/16 01:47:10;;;;;;;25.27;15.90;;;6.80;99.90;;;;;;4972393;28;20061;-85
2022/04/16 01:49:36;;;;;;;27.15;16.00;;;6.70;99.90;;;;;;4972364;28;20050;-84
2022/04/16 01:52:03;;;;;;;25.83;16.13;;;6.70;99.90;;;;;;4972631;28;20050;-84
2022/04/16 01:54:28;;;;;;;23.38;15.60;;;6.70;99.90;;;;;;4951772;29;20047;-85
2022/04/16 01:56:54;;;;;;;23.77;14.80;;;6.60;99.90;;;;;;4969071;28;20558;-84
2022/04/16 01:59:20;;;;;;;22.95;14.98;;;6.60;99.90;;;;;;4972203;28;20062;-85
2022/04/16 02:01:45;;;;;;;26.23;15.93;;;6.50;99.90;;;;;;4951303;29;20050;-84
2022/04/16 02:04:11;;;;;;;23.55;14.95;;;6.50;99.90;;;;;;4970787;28;20097;-84
2022/04/16 02:06:37;;;;;;;21.65;14.40;;;6.40;99.90;;;;;;4951727;29;20062;-86
2022/04/16 02:09:03;;;;;;;21.73;15.57;;;6.40;99.90;;;;;;4969954;28;20498;-86
2022/04/16 02:11:30;;;;;;;26.67;15.48;;;6.30;99.90;;;;;;4970339;28;20055;-78
2022/04/16 02:13:55;;;;;;;28.38;17.13;;;6.30;99.90;;;;;;4949192;28;20063;-84
2022/04/16 02:16:21;;;;;;;29.55;16.83;;;6.30;99.90;;;;;;4971856;28;20045;-85
2022/04/16 02:18:47;;;;;;;24.83;16.45;;;6.30;99.90;;;;;;4971370;28;20057;-85
2022/04/16 02:21:12;;;;;;;22.63;16.52;;;6.30;99.90;;;;;;4971705;28;20055;-83
2022/04/16 02:23:38;;;;;;;27.45;17.20;;;6.20;99.90;;;;;;4971504;28;20050;-83
2022/04/16 02:26:07;;;;;;;26.30;16.83;;;6.20;99.90;;;;;;4971146;28;20086;-82
2022/04/16 02:28:32;;;;;;;23.17;16.88;;;6.20;99.90;;;;;;4971489;28;20093;-82
2022/04/16 02:30:58;;;;;;;28.45;17.13;;;6.20;99.90;;;;;;4951630;28;20059;-84
2022/04/16 02:33:23;;;;;;;26.90;17.15;;;6.10;99.90;;;;;;4971525;28;20169;-83
2022/04/16 02:35:49;;;;;;;26.00;17.08;;;6.10;99.90;;;;;;4971484;28;20101;-83
2022/04/16 02:38:15;;;;;;;24.85;16.70;;;6.10;99.90;;;;;;4971228;28;20042;-83
2022/04/16 02:40:40;;;;;;;27.75;17.70;;;6.10;99.90;;;;;;4971678;28;20046;-84
2022/04/16 02:43:06;;;;;;;29.83;18.17;;;6.00;99.90;;;;;;4971558;28;20612;-85
2022/04/16 02:48:16;;;;;;;27.40;17.63;;;5.90;99.90;;;;;;4953746;28;20078;-86
2022/04/16 02:50:41;;;;;;;28.10;18.40;;;5.90;99.90;;;;;;4950921;29;20117;-85
2022/04/16 02:53:07;;;;;;;33.20;18.48;;;5.90;99.90;;;;;;4952759;28;20063;-85
2022/04/16 02:55:33;;;;;;;27.85;18.40;;;5.80;99.90;;;;;;4950416;29;20114;-84
2022/04/16 02:57:59;;;;;;;31.88;19.17;;;5.80;99.90;;;;;;4951788;28;20067;-84
2022/04/16 03:00:26;;;;;;;32.55;21.00;;;5.80;99.90;;;;;;4953666;28;20196;-84
2022/04/16 03:02:52;;;;;;;32.65;19.63;;;5.80;99.90;;;;;;4971990;28;20097;-84
2022/04/16 03:05:18;;;;;;;33.28;19.98;;;5.90;99.90;;;;;;4957566;28;20584;-76
2022/04/16 03:07:44;;;;;;;28.95;19.08;;;5.90;99.90;;;;;;4974558;28;20133;-85
2022/04/16 03:10:11;;;;;;;31.75;20.67;;;5.90;99.90;;;;;;4974902;28;20066;-85
2022/04/16 03:12:49;;;;;;;28.38;19.55;;;5.90;99.90;;;;;;4974846;28;20124;-83
2022/04/16 03:18:01;;;;;;;33.25;21.48;;;6.00;99.90;;;;;;4973953;28;20130;-84
2022/04/16 03:20:29;;;;;;;32.55;19.85;;;6.10;99.90;;;;;;4956087;29;20130;-81
2022/04/16 03:22:56;;;;;;;33.70;22.05;;;6.10;99.90;;;;;;4963878;28;20146;-85
2022/04/16 03:25:21;;;;;;;36.28;22.90;;;6.20;99.90;;;;;;4967239;28;20085;-84
2022/04/16 03:27:47;;;;;;;31.95;22.98;;;6.30;99.90;;;;;;4975280;28;20089;-81
2022/04/16 03:30:13;;;;;;;39.22;23.15;;;6.30;99.90;;;;;;4956915;28;20055;-84
2022/04/16 03:32:39;;;;;;;36.58;22.40;;;6.40;99.90;;;;;;4975747;28;20530;-84
2022/04/16 03:35:06;;;;;;;42.10;24.60;;;6.40;99.90;;;;;;4975934;28;20047;-84
2022/04/16 03:37:36;;;;;;;39.95;24.35;;;6.50;99.90;;;;;;4968573;29;20062;-83
2022/04/16 03:40:03;;;;;;;33.20;22.50;;;6.50;99.90;;;;;;4971034;28;20138;-78
2022/04/16 03:42:29;;;;;;;36.55;23.70;;;6.60;99.90;;;;;;4991637;28;20875;-83
2022/04/16 03:44:54;;;;;;;34.13;22.58;;;6.60;99.90;;;;;;4985557;28;20207;-79
2022/04/16 03:47:20;;;;;;;33.15;22.10;;;6.70;99.90;;;;;;4950803;28;20055;-82
2022/04/16 03:49:46;;;;;;;35.35;22.15;;;6.80;99.90;;;;;;4975988;28;20050;-79
2022/04/16 03:52:11;;;;;;;35.15;23.30;;;6.80;99.90;;;;;;4975590;28;20049;-80
2022/04/16 04:00:09;;;;;;;37.65;22.83;;;6.90;99.90;;;;;;4955460;28;20055;-80
2022/04/16 04:02:36;;;;;;;32.92;21.23;;;7.00;99.90;;;;;;4974677;28;20051;-81
2022/04/16 04:05:03;;;;;;;35.80;22.88;;;7.20;99.90;;;;;;4974253;28;20086;-83
2022/04/16 04:07:29;;;;;;;35.65;23.73;;;7.00;99.90;;;;;;4953425;29;20067;-83
2022/04/16 04:09:55;;;;;;;32.58;21.50;;;7.10;99.90;;;;;;4969946;28;20043;-80
2022/04/16 04:12:20;;;;;;;38.13;24.05;;;7.10;99.90;;;;;;4973995;28;20053;-81
2022/04/16 04:14:46;;;;;;;36.95;22.42;;;7.10;99.90;;;;;;4953192;29;20322;-79
2022/04/16 04:17:13;;;;;;;34.33;21.83;;;7.20;99.90;;;;;;4973394;28;20245;-84
2022/04/16 04:19:41;;;;;;;36.75;22.88;;;7.20;99.90;;;;;;4973472;28;20093;-80
2022/04/16 04:22:08;;;;;;;34.95;22.92;;;7.20;99.90;;;;;;4954930;28;20118;-79
2022/04/16 04:24:36;;;;;;;36.05;24.08;;;7.20;99.90;;;;;;4973623;28;20418;-80
2022/04/16 04:27:02;;;;;;;34.35;23.23;;;7.30;99.90;;;;;;4954141;28;20054;-79
2022/04/16 04:29:28;;;;;;;37.35;25.70;;;7.30;99.90;;;;;;4953039;29;20093;-83
2022/04/16 04:31:55;;;;;;;34.58;25.02;;;7.30;99.90;;;;;;4953200;29;20138;-83
2022/04/16 04:34:20;;;;;;;41.88;26.60;;;7.40;99.90;;;;;;4965543;28;20043;-84
2022/04/16 04:36:46;;;;;;;40.67;26.83;;;7.40;99.90;;;;;;4973977;28;20050;-82
2022/04/16 04:39:12;;;;;;;43.38;27.85;;;7.40;99.90;;;;;;4973733;28;20070;-84
2022/04/16 04:41:38;;;;;;;44.08;27.70;;;7.40;99.90;;;;;;4973314;28;20098;-81
2022/04/16 04:44:07;;;;;;;43.03;28.42;;;7.50;99.90;;;;;;4973425;28;20123;-83
2022/04/16 04:46:33;;;;;;;44.70;28.55;;;7.50;99.90;;;;;;4952621;29;20132;-81
2022/04/16 04:48:59;;;;;;;46.25;29.73;;;7.50;99.90;;;;;;4953294;28;20058;-81
2022/04/16 04:51:24;;;;;;;43.80;28.50;;;7.50;99.90;;;;;;4952125;29;20051;-81
2022/04/16 04:53:50;;;;;;;53.53;30.45;;;7.50;99.90;;;;;;4969341;28;20078;-82
2022/04/16 04:56:15;;;;;;;44.65;29.67;;;7.50;99.90;;;;;;4955441;28;20050;-84
2022/04/16 04:58:41;;;;;;;47.30;30.38;;;7.80;99.90;;;;;;4973901;28;20065;-84
2022/04/16 05:01:07;;;;;;;42.63;28.70;;;7.50;99.90;;;;;;4953811;28;20062;-81
2022/04/16 05:03:32;;;;;;;43.30;29.67;;;7.50;99.90;;;;;;4952726;29;20047;-84
2022/04/16 05:05:58;;;;;;;45.88;30.88;;;7.50;99.90;;;;;;4970311;28;20375;-84
2022/04/16 05:08:23;;;;;;;47.17;30.27;;;7.50;99.90;;;;;;4952558;29;20182;-85
2022/04/16 05:10:49;;;;;;;44.67;30.38;;;7.60;99.90;;;;;;4969083;28;20045;-82
2022/04/16 05:13:15;;;;;;;43.72;29.20;;;7.60;99.90;;;;;;4955126;28;20515;-84
2022/04/16 05:15:40;;;;;;;47.38;31.45;;;7.60;99.90;;;;;;4973556;28;20043;-83
2022/04/16 05:18:06;;;;;;;47.70;31.33;;;7.60;99.90;;;;;;4973051;28;20046;-81
2022/04/16 05:20:32;;;;;;;43.97;28.23;;;7.60;99.90;;;;;;4972980;28;20047;-84
2022/04/16 05:22:57;;;;;;;42.78;29.80;;;7.60;99.90;;;;;;4952108;28;20086;-85
2022/04/16 05:25:23;;;;;;;39.35;27.52;;;7.60;99.90;;;;;;4972652;28;20505;-85
2022/04/16 05:27:48;;;;;;;43.83;27.67;;;8.00;99.90;;;;;;4951440;29;20402;-83
2022/04/16 05:30:22;;;;;;;39.70;26.48;;;7.70;99.90;;;;;;4972148;28;20134;-82
2022/04/16 05:32:49;;;;;;;42.88;28.52;;;7.70;99.90;;;;;;4972821;28;20058;-84
2022/04/16 05:35:16;;;;;;;43.15;29.15;;;8.00;99.90;;;;;;4939091;28;20043;-81
2022/04/16 05:37:42;;;;;;;37.30;26.77;;;7.70;99.90;;;;;;4972119;28;20046;-83
2022/04/16 05:40:09;;;;;;;42.05;27.15;;;7.70;99.90;;;;;;4953942;28;20142;-84
2022/04/16 05:42:42;;;;;;;43.10;26.92;;;7.70;99.90;;;;;;4971998;28;20078;-83
2022/04/16 05:45:09;;;;;;;34.63;23.60;;;7.70;99.90;;;;;;4972439;28;20055;-83
2022/04/16 05:47:35;;;;;;;34.47;23.45;;;7.70;99.90;;;;;;4935582;29;22018;-83
2022/04/16 05:50:00;;;;;;;32.70;22.42;;;7.70;99.90;;;;;;4969700;28;20051;-84
2022/04/16 05:52:27;;;;;;;33.00;22.38;;;7.70;99.90;;;;;;4972188;28;20057;-84
2022/04/16 05:54:53;;;;;;;33.00;22.17;;;7.70;99.90;;;;;;4972293;28;20042;-84
2022/04/16 05:57:21;;;;;;;30.42;21.60;;;7.70;99.90;;;;;;4972294;28;20489;-82
2022/04/16 05:59:49;;;;;;;31.88;21.08;;;7.70;99.90;;;;;;4971796;28;20561;-82
2022/04/16 06:02:14;;;;;;;31.58;21.77;;;7.70;99.90;;;;;;4972399;28;20043;-80
2022/04/16 06:04:40;;;;;;;31.42;21.15;;;7.70;99.90;;;;;;4971655;28;20062;-84
2022/04/16 06:07:05;;;;;;;31.75;20.83;;;7.80;99.90;;;;;;4971792;28;20078;-83
2022/04/16 06:09:31;;;;;;;30.45;20.63;;;7.80;99.90;;;;;;4951604;29;20068;-83
2022/04/16 06:12:04;;;;;;;32.88;19.85;;;7.80;99.90;;;;;;4968924;28;20409;-82
2022/04/16 06:14:31;;;;;;;29.90;17.67;;;7.80;99.90;;;;;;4950891;29;20447;-84
2022/04/16 06:16:57;;;;;;;27.45;16.92;;;7.80;99.90;;;;;;4951652;28;20255;-81
2022/04/16 06:19:23;;;;;;;25.13;15.30;;;7.80;99.90;;;;;;4951014;29;20047;-82
2022/04/16 06:21:49;;;;;;;25.42;15.00;;;7.80;99.90;;;;;;4951108;29;20062;-82
2022/04/16 06:24:15;;;;;;;20.98;13.50;;;7.90;99.90;;;;;;4971190;28;20051;-81
2022/04/16 06:26:42;;;;;;;23.55;14.35;;;7.90;99.90;;;;;;4970528;28;20101;-83
2022/04/16 06:29:08;;;;;;;21.67;13.32;;;7.90;99.90;;;;;;4971919;28;20046;-83
2022/04/16 06:31:34;;;;;;;21.20;13.85;;;7.90;99.90;;;;;;4971223;28;20134;-85
2022/04/16 06:33:59;;;;;;;20.15;13.98;;;8.00;99.90;;;;;;4971957;28;20464;-83
2022/04/16 06:36:26;;;;;;;26.05;13.80;;;8.00;99.90;;;;;;4971660;28;20510;-82
2022/04/16 06:38:51;;;;;;;19.50;13.05;;;8.00;99.90;;;;;;4971435;28;20043;-83
2022/04/16 06:41:17;;;;;;;21.10;13.30;;;8.10;99.90;;;;;;4954437;28;20053;-83
2022/04/16 06:43:43;;;;;;;19.50;12.85;;;8.10;99.90;;;;;;4971818;28;20057;-82
2022/04/16 06:46:08;;;;;;;19.42;12.88;;;8.20;99.90;;;;;;4952149;28;20058;-86
2022/04/16 06:48:34;;;;;;;24.23;14.07;;;8.20;99.90;;;;;;4950923;29;20149;-82
2022/04/16 06:50:59;;;;;;;22.38;13.07;;;8.30;99.90;;;;;;4968782;28;20101;-82
2022/04/16 06:53:26;;;;;;;19.73;13.20;;;8.40;99.90;;;;;;4950768;29;20839;-81
2022/04/16 06:55:52;;;;;;;21.70;13.15;;;8.40;99.90;;;;;;4951244;29;20058;-82
2022/04/16 06:58:18;;;;;;;20.85;13.05;;;8.40;99.90;;;;;;4971007;28;20047;-83
2022/04/16 07:00:43;;;;;;;20.17;13.02;;;8.50;99.90;;;;;;4970756;28;20137;-82
2022/04/16 07:03:09;;;;;;;21.58;13.43;;;8.50;99.90;;;;;;4953152;28;20105;-84
2022/04/16 07:05:34;;;;;;;21.25;12.05;;;8.90;99.90;;;;;;4971696;28;20043;-83
2022/04/16 07:08:00;;;;;;;19.50;12.15;;;8.50;99.90;;;;;;4962963;28;20155;-83
2022/04/16 07:10:26;;;;;;;18.75;11.07;;;8.60;99.90;;;;;;4966552;29;20054;-80
2022/04/16 07:12:51;;;;;;;18.08;11.77;;;8.60;99.90;;;;;;4967563;29;20138;-82
2022/04/16 07:15:17;;;;;;;17.65;10.30;;;8.70;99.90;;;;;;4977899;28;20429;-83
2022/04/16 07:17:45;;;;;;;18.25;11.45;;;9.10;99.90;;;;;;4954398;29;20554;-83
2022/04/16 07:20:11;;;;;;;17.63;10.38;;;8.80;99.90;;;;;;4973967;28;20051;-81
2022/04/16 07:22:37;;;;;;;18.38;10.35;;;8.80;99.90;;;;;;4951855;29;20058;-83
2022/04/16 07:25:04;;;;;;;17.73;9.95;;;8.90;99.90;;;;;;4951914;28;20403;-83
2022/04/16 07:27:31;;;;;;;14.63;9.15;;;8.90;99.90;;;;;;4971376;28;20058;-82
2022/04/16 07:30:00;;;;;;;16.80;9.35;;;9.00;99.90;;;;;;4970545;28;20047;-83
2022/04/16 07:32:27;;;;;;;13.35;8.18;;;9.00;99.90;;;;;;4970693;28;20055;-80
2022/04/16 07:34:53;;;;;;;13.80;8.98;;;9.10;99.90;;;;;;4971326;28;20070;-81
2022/04/16 07:37:19;;;;;;;15.52;9.13;;;9.20;99.90;;;;;;4971059;28;20094;-85
2022/04/16 07:39:45;;;;;;;16.27;7.97;;;9.60;99.90;;;;;;4950358;29;20102;-78
2022/04/16 07:42:11;;;;;;;14.77;8.63;;;9.20;99.90;;;;;;4962052;28;20047;-78
2022/04/16 07:44:36;;;;;;;14.90;9.18;;;9.30;99.90;;;;;;4971289;28;20371;-84
2022/04/16 07:47:02;;;;;;;16.58;8.05;;;9.40;99.90;;;;;;4956914;28;20085;-84
2022/04/16 07:49:28;;;;;;;12.35;6.75;;;9.50;99.90;;;;;;4974444;28;20443;-83
2022/04/16 07:51:53;;;;;;;11.30;6.63;;;9.60;99.90;;;;;;4954105;28;20051;-82
2022/04/16 07:54:19;;;;;;;12.40;7.88;;;9.70;99.90;;;;;;4954268;29;20124;-83
2022/04/16 07:56:45;;;;;;;19.63;8.05;;;9.80;99.90;;;;;;4969450;28;20058;-82
2022/04/16 07:59:11;;;;;;;12.73;6.75;;;9.90;99.90;;;;;;4974514;28;20054;-81
2022/04/16 08:01:37;;;;;;;11.80;6.13;;;10.00;99.90;;;;;;4954187;29;20117;-84
2022/04/16 08:04:03;;;;;;;8.35;5.07;;;10.10;99.90;;;;;;4971344;28;20047;-86
2022/04/16 08:06:29;;;;;;;9.73;4.45;;;10.30;99.90;;;;;;4974301;28;20042;-83
2022/04/16 08:09:00;;;;;;;8.23;4.75;;;10.30;99.90;;;;;;4974403;28;20058;-85
2022/04/16 08:11:31;;;;;;;10.35;5.32;;;10.50;99.90;;;;;;4974330;28;20047;-87
2022/04/16 08:13:57;;;;;;;10.90;5.03;;;10.70;99.90;;;;;;4974725;28;20125;-84
2022/04/16 08:16:23;;;;;;;14.32;6.88;;;10.90;99.90;;;;;;4973934;28;20046;-83
2022/04/16 08:18:49;;;;;;;12.90;7.97;;;11.10;99.90;;;;;;4973535;28;20050;-86
2022/04/16 08:21:15;;;;;;;13.00;7.65;;;11.80;99.90;;;;;;4974396;28;20051;-83
2022/04/16 08:23:54;;;;;;;15.07;7.38;;;11.50;99.90;;;;;;4974448;28;20109;-82
2022/04/16 08:26:21;;;;;;;13.93;7.13;;;11.60;99.90;;;;;;4973988;28;20051;-84
2022/04/16 08:28:46;;;;;;;13.65;6.65;;;11.70;99.90;;;;;;4953470;29;20053;-84
2022/04/16 08:31:12;;;;;;;10.13;6.82;;;11.80;99.90;;;;;;4972817;28;20051;-84
2022/04/16 08:33:37;;;;;;;11.20;6.68;;;12.00;99.90;;;;;;4974083;28;20441;-86
2022/04/16 08:36:03;;;;;;;10.65;6.18;;;12.00;99.90;;;;;;4973792;28;20097;-85
2022/04/16 08:38:29;;;;;;;12.48;6.50;;;12.20;99.90;;;;;;4973375;28;20050;-85
2022/04/16 08:40:55;;;;;;;11.93;6.65;;;12.30;99.90;;;;;;4953375;29;20050;-87
2022/04/16 08:43:21;;;;;;;10.18;5.97;;;12.50;99.90;;;;;;4973619;28;20406;-81
2022/04/16 08:45:49;;;;;;;10.98;5.75;;;12.70;99.90;;;;;;4973752;28;20046;-84
2022/04/16 08:48:15;;;;;;;10.82;5.55;;;13.40;99.90;;;;;;4973994;28;20717;-86
2022/04/16 08:50:42;;;;;;;7.95;4.95;;;13.10;99.90;;;;;;4973446;28;20076;-84
2022/04/16 08:53:08;;;;;;;14.40;5.50;;;13.10;99.90;;;;;;4954408;28;20059;-88
2022/04/16 08:55:33;;;;;;;7.53;4.68;;;13.10;99.90;;;;;;4953001;29;20467;-85
2022/04/16 08:57:59;;;;;;;8.77;4.60;;;13.40;99.90;;;;;;4969507;28;20404;-83
2022/04/16 09:00:24;;;;;;;7.50;4.40;;;13.80;99.90;;;;;;4972147;28;20046;-84
2022/04/16 09:02:56;;;;;;;6.55;3.97;;;13.80;99.90;;;;;;4952720;29;20047;-83
2022/04/16 09:05:23;;;;;;;8.15;3.72;;;13.90;99.90;;;;;;4965733;28;20057;-84
2022/04/16 09:07:55;;;;;;;6.00;3.45;;;13.90;99.90;;;;;;4973015;28;20051;-84
2022/04/16 09:10:21;;;;;;;7.10;3.50;;;13.90;99.90;;;;;;4973239;28;20047;-83
2022/04/16 09:12:51;;;;;;;9.38;3.38;;;14.00;99.90;;;;;;4973362;28;20054;-83
2022/04/16 09:15:17;;;;;;;5.88;3.28;;;13.90;99.90;;;;;;4973261;28;20047;-83
2022/04/16 09:17:43;;;;;;;6.93;3.70;;;14.00;99.90;;;;;;4973252;28;20101;-83
2022/04/16 09:20:12;;;;;;;6.82;3.40;;;14.20;99.90;;;;;;4973190;28;20120;-84
2022/04/16 09:22:40;;;;;;;7.18;3.75;;;14.20;99.90;;;;;;4972778;28;20045;-83
2022/04/16 09:25:19;;;;;;;6.43;3.35;;;14.60;99.90;;;;;;4973270;28;20513;-82
2022/04/16 09:27:49;;;;;;;5.22;2.72;;;14.60;99.90;;;;;;4971148;28;20046;-83
2022/04/16 09:30:37;;;;;;;5.03;3.13;;;14.50;99.90;;;;;;4973371;28;20046;-82
2022/04/16 09:33:03;;;;;;;4.93;2.80;;;14.70;99.90;;;;;;4975126;28;20050;-85
2022/04/16 09:35:35;;;;;;;4.43;2.63;;;14.90;99.90;;;;;;4974053;28;20035;-83
2022/04/16 09:38:04;;;;;;;4.93;2.65;;;14.50;99.40;;;;;;4981971;28;20065;-84
2022/04/16 09:40:34;;;;;;;8.23;3.00;;;14.60;99.90;;;;;;4985928;28;20039;-80
2022/04/16 09:43:09;;;;;;;6.22;3.30;;;15.00;99.60;;;;;;4983552;28;20062;-82
2022/04/16 09:45:37;;;;;;;;;;;15.10;98.60;;;;;;4953391;29;20859;-84
2022/04/16 09:48:08;;;;;;;5.18;2.75;;;14.90;99.80;;;;;;4963226;28;19973;-83
2022/04/16 09:50:35;;;;;;;4.95;2.88;;;15.00;99.00;;;;;;4972914;28;20546;-82
2022/04/16 09:53:04;;;;;;;4.85;2.55;;;15.40;99.90;;;;;;4972468;28;20047;-83
2022/04/16 09:55:29;;;;;;;6.38;2.65;;;15.30;98.20;;;;;;4952310;29;20051;-83
2022/04/16 09:57:59;;;;;;;5.00;2.20;;;15.30;97.80;;;;;;4969788;28;20051;-88
2022/04/16 10:00:26;;;;;;;4.68;2.40;;;15.30;96.40;;;;;;4972307;28;20094;-87
2022/04/16 10:02:53;;;;;;;5.28;2.20;;;15.90;96.60;;;;;;4972553;28;20538;-86
2022/04/16 10:05:30;;;;;;;5.05;2.15;;;16.00;98.30;;;;;;4954945;28;20051;-85
2022/04/16 10:08:00;;;;;;;4.88;2.22;;;16.10;96.80;;;;;;4950260;28;20061;-88
2022/04/16 10:10:30;;;;;;;7.63;2.30;;;15.90;95.80;;;;;;4935600;29;20130;-86
2022/04/16 10:13:04;;;;;;;4.25;1.95;;;16.10;97.40;;;;;;4976906;23;20050;-87
2022/04/16 10:15:49;;;;;;;3.17;1.63;;;16.10;94.40;;;;;;4935270;29;20549;-86
2022/04/16 10:18:14;;;;;;;6.97;2.13;;;16.10;94.10;;;;;;4918781;29;20302;-85
2022/04/16 10:20:54;;;;;;;2.88;1.35;;;16.40;93.10;;;;;;4936051;29;20126;-91
2022/04/16 10:23:46;;;;;;;2.67;1.40;;;16.10;93.40;;;;;;4952944;29;20051;-86
2022/04/16 10:26:16;;;;;;;2.28;1.20;;;16.30;90.50;;;;;;4951862;29;20050;-82
2022/04/16 10:28:47;;;;;;;3.45;1.75;;;16.10;90.70;;;;;;4953241;29;20055;-87
2022/04/16 10:31:24;;;;;;;3.38;1.60;;;16.30;84.60;;;;;;4918813;29;20050;-83
2022/04/16 10:34:05;;;;;;;3.05;1.73;;;16.40;88.20;;;;;;4933902;29;20404;-86
2022/04/16 10:36:41;;;;;;;3.58;1.50;;;16.60;90.70;;;;;;4917090;29;20054;-84
2022/04/16 10:39:18;;;;;;;2.35;1.20;;;16.60;89.30;;;;;;4916584;29;20048;-87
2022/04/16 10:41:58;;;;;;;2.88;1.10;;;16.70;88.50;;;;;;4900924;29;20095;-86
2022/04/16 10:44:24;;;;;;;6.07;1.40;;;16.80;82.90;;;;;;4916528;29;20055;-85
2022/04/16 10:47:04;;;;;;;2.13;1.10;;;16.90;81.60;;;;;;4943270;29;20051;-86
2022/04/16 10:49:31;;;;;;;2.03;1.10;;;17.00;84.80;;;;;;4909974;29;20051;-86
2022/04/16 10:51:57;;;;;;;5.32;0.90;;;17.10;81.30;;;;;;4933491;29;20488;-86
2022/04/16 10:54:34;;;;;;;3.05;1.20;;;17.50;83.20;;;;;;4933628;29;20098;-87
2022/04/16 10:57:01;;;;;;;2.13;1.20;;;17.20;75.70;;;;;;4941339;29;20079;-84
2022/04/16 10:59:41;;;;;;;4.53;1.30;;;17.20;74.90;;;;;;4952450;29;20094;-85
2022/04/16 11:02:21;;;;;;;3.80;1.05;;;17.50;74.20;;;;;;4933735;29;20098;-85
2022/04/16 11:04:57;;;;;;;2.38;1.00;;;17.40;72.50;;;;;;4949963;29;20526;-86
2022/04/16 11:07:24;;;;;;;2.00;0.70;;;17.30;65.70;;;;;;4935129;29;20503;-83
2022/04/16 11:09:53;;;;;;;2.63;1.13;;;17.10;65.50;;;;;;4952249;29;20505;-83
2022/04/16 11:12:23;;;;;;;1.08;0.57;;;17.40;66.10;;;;;;4952198;29;20062;-84
2022/04/16 11:14:58;;;;;;;1.85;0.65;;;17.60;65.90;;;;;;4949976;28;20592;-83
2022/04/16 11:17:24;;;;;;;3.33;0.90;;;17.40;65.00;;;;;;4927219;29;20067;-83
2022/04/16 11:20:01;;;;;;;3.83;0.88;;;17.30;63.10;;;;;;4952405;28;20048;-79
2022/04/16 11:22:26;;;;;;;2.15;0.68;;;17.20;61.40;;;;;;4956105;29;20051;-80
2022/04/16 11:24:52;;;;;;;1.27;0.60;;;17.10;62.10;;;;;;4948411;29;20139;-79
2022/04/16 11:36:00;;;;;;;3.30;1.08;;;17.80;62.60;;;;;;4956155;29;20055;-80
2022/04/16 11:38:35;;;;;;;2.88;0.90;;;17.80;62.40;;;;;;4955717;29;20043;-80
2022/04/16 11:41:04;;;;;;;3.50;0.60;;;17.90;59.90;;;;;;4955739;29;20043;-80
2022/04/16 11:43:30;;;;;;;1.73;0.50;;;17.80;57.90;;;;;;4954994;29;20109;-81
2022/04/16 11:45:57;;;;;;;5.28;0.70;;;18.00;59.00;;;;;;4955718;29;20448;-81
2022/04/16 11:48:22;;;;;;;3.60;0.60;;;18.00;55.10;;;;;;4955549;29;20102;-80
2022/04/16 11:50:48;;;;;;;2.55;0.50;;;18.20;54.30;;;;;;4955238;29;20455;-81
2022/04/16 11:53:14;;;;;;;3.08;0.50;;;18.00;55.60;;;;;;4955404;29;20051;-81
2022/04/16 11:55:47;;;;;;;0.70;0.30;;;17.90;51.10;;;;;;4955408;29;20047;-81
2022/04/16 11:58:13;;;;;;;1.70;0.68;;;17.80;51.50;;;;;;4921338;29;20048;-81
2022/04/16 12:00:55;;;;;;;3.15;0.82;;;17.70;52.50;;;;;;4955188;29;20499;-81
2022/04/16 12:03:22;;;;;;;4.35;0.70;;;17.80;53.50;;;;;;4955182;29;20058;-83
2022/04/16 12:05:50;;;;;;;1.42;0.50;;;18.20;55.10;;;;;;4937173;29;20499;-80
2022/04/16 12:08:19;;;;;;;2.88;0.60;;;18.20;55.80;;;;;;4937811;29;20109;-80
2022/04/16 12:10:46;;;;;;;1.10;0.60;;;18.20;53.80;;;;;;4955307;29;20473;-79
2022/04/16 12:13:12;;;;;;;1.83;0.60;;;18.40;56.20;;;;;;4954858;29;20079;-81
2022/04/16 12:15:44;;;;;;;1.50;0.50;;;18.20;54.30;;;;;;4955046;29;20084;-79
2022/04/16 12:18:10;;;;;;;3.22;0.60;;;18.20;53.20;;;;;;4952878;29;20085;-79
2022/04/16 12:20:43;;;;;;;1.05;0.50;;;18.00;52.40;;;;;;4954970;29;20134;-79
2022/04/16 12:23:14;;;;;;;2.08;0.70;;;18.10;54.20;;;;;;4937903;29;20039;-79
2022/04/16 12:25:41;;;;;;;2.17;0.70;;;17.90;54.00;;;;;;4937060;29;20055;-80
2022/04/16 12:28:12;;;;;;;1.58;0.63;;;18.00;54.30;;;;;;4953232;29;20094;-80
2022/04/16 12:30:38;;;;;;;3.33;0.80;;;18.00;53.00;;;;;;4954493;29;20051;-80
2022/04/16 12:33:10;;;;;;;2.72;0.50;;;18.20;54.00;;;;;;4954643;28;20425;-80
2022/04/16 12:35:44;;;;;;;1.40;0.50;;;18.00;53.60;;;;;;4954689;29;20047;-80
2022/04/16 12:38:14;;;;;;;1.10;0.57;;;18.20;51.80;;;;;;4969360;28;20138;-79
2022/04/16 12:40:41;;;;;;;2.53;0.60;;;18.40;52.80;;;;;;4954566;29;20351;-79
2022/04/16 12:43:07;;;;;;;1.52;0.50;;;18.40;51.40;;;;;;4937388;29;20139;-80
2022/04/16 12:45:33;;;;;;;3.60;0.73;;;18.60;52.00;;;;;;4954135;29;20114;-80
2022/04/16 12:48:00;;;;;;;5.28;0.70;;;18.60;52.00;;;;;;4937097;29;20502;-78
2022/04/16 12:50:28;;;;;;;1.40;0.52;;;18.50;50.50;;;;;;4937330;29;20101;-80
2022/04/16 12:52:54;;;;;;;1.55;0.68;;;18.40;49.70;;;;;;4921652;29;20085;-79
2022/04/16 12:55:20;;;;;;;1.20;0.50;;;18.40;49.40;;;;;;4969492;28;20427;-79
2022/04/16 12:57:46;;;;;;;5.25;0.57;;;18.40;49.60;;;;;;4954462;29;20137;-79
2022/04/16 13:00:13;;;;;;;1.48;0.68;;;18.30;47.70;;;;;;4953909;29;20135;-79
2022/04/16 13:02:42;;;;;;;1.27;0.55;;;18.20;49.70;;;;;;4952572;29;20113;-78